Kezdőlap
METAR-TAF:

METAR-TAF

Repülőterek :

York Municipal Airport

York, Nebraska, Amerikai Egyesült Államok

földrajzi szélesség: 40-53-48N, földrajzi hosszúság: 097-37-22W, magasság: 509 m

Jelenlegi meteorológiai megfigyelések

A jelentés 27 perccel ezelõtt készült, 20:15 UTC
Észak-északnyugati szél 6 kt széllökések: 13 kt
Hőmérséklet 22°C
Páratartalom 53%
Légköri nyomás 1005 hPa
Látótávolság: 16.1 km
Derült ég

METAR: KJYR 262015Z AUTO 34006G13KT 10SM CLR 22/12 A2968 RMK AO2

Idő: 15:42 (20:42 UTC)


TAF: hiányzik

Meteorológiai megfigyelések és előrejelzések több, mint 4000 repülőtéren (METAR és TAF jelentéseket).

A térképen piros és sárga pontok jelzik az elérhető meteorológiai állomásokat.

Mozgassa az egeret a pont fölött, hogy megjelenjen az állomás neve.

Azután kattintson az időjárási megfigyelések és előrejelzések megtekintéséhez.

A térkép megváltoztatása: kattintson a fekete keresztel jelölt zöld gombra ráközelítéshez, a vonallal jelölt zöld gombra távolításhoz, vagy a zöld nyilakra a szomszédos térképek eléréséhez.


METAR-TAF: